USY99P EDFH-LCLK
Flight info
| Callsign | USY99P |
|---|---|
| Flight time | N/A |
| Altitude | 37000 |
| Route | ULKIG2S ULKIG DCT OLGIL DCT FRD DCT TAKUT L603 LATLO/N0488F410 DCT INGID DCT PODET DCT DOBOT DCT ODLET DCT VABEK UL603 OLOTA DCT RUGAS UN128 LMO UN127 RIKSO DCT AFLUH DCT KAVAK DCT TOMBI DCT BONEK |
| Aircraft | A343/H-SDE2E3FGHIJ4J5M1RWXY/LB1D1 |
Departure
| Time | 2026-05-09 09:10 |
|---|---|
| Airport | Frankfurt-Hahn Airport (EDFH) |
Arrival
| Time | N/A |
|---|---|
| Airport | Larnaca International Airport (LCLK) |
| Time | Latitude | Longitude | Altitude | Speed | Heading |
|---|---|---|---|---|---|
| 2026-05-09 08:39 | 49.95209 | 7.27371 | 1605 ft | 0 kts | 122° |
| 2026-05-09 08:46 | 49.95209 | 7.27372 | 1605 ft | 0 kts | 122° |
| 2026-05-09 08:48 | 49.95209 | 7.27371 | 1605 ft | 0 kts | 122° |
| 2026-05-09 08:57 | 49.95209 | 7.27372 | 1605 ft | 0 kts | 122° |
| 2026-05-09 09:01 | 49.95218 | 7.27351 | 1619 ft | 4 kts | 122° |
| 2026-05-09 09:02 | 49.95233 | 7.27316 | 1618 ft | 4 kts | 123° |
| 2026-05-09 09:02 | 49.95244 | 7.27286 | 1618 ft | 4 kts | 97° |
| 2026-05-09 09:02 | 49.95240 | 7.27249 | 1619 ft | 4 kts | 55° |
| 2026-05-09 09:02 | 49.95222 | 7.27218 | 1619 ft | 4 kts | 39° |
| 2026-05-09 09:03 | 49.95201 | 7.27194 | 1620 ft | 2 kts | 32° |
| 2026-05-09 09:03 | 49.95199 | 7.27192 | 1620 ft | 0 kts | 32° |
| 2026-05-09 09:06 | 49.95200 | 7.27193 | 1620 ft | 1 kts | 32° |
| 2026-05-09 09:07 | 49.95211 | 7.27203 | 1620 ft | 4 kts | 32° |
| 2026-05-09 09:07 | 49.95271 | 7.27264 | 1618 ft | 15 kts | 32° |
| 2026-05-09 09:07 | 49.95370 | 7.27363 | 1619 ft | 18 kts | 33° |
| 2026-05-09 09:07 | 49.95478 | 7.27468 | 1616 ft | 18 kts | 32° |
| 2026-05-09 09:08 | 49.95571 | 7.27542 | 1611 ft | 14 kts | 9° |
| 2026-05-09 09:08 | 49.95661 | 7.27469 | 1615 ft | 17 kts | 326° |
| 2026-05-09 09:08 | 49.95757 | 7.27335 | 1611 ft | 18 kts | 290° |
| 2026-05-09 09:08 | 49.95715 | 7.27221 | 1612 ft | 7 kts | 210° |
| 2026-05-09 09:09 | 49.95706 | 7.27213 | 1613 ft | 0 kts | 212° |
| 2026-05-09 09:09 | 49.95699 | 7.27206 | 1613 ft | 8 kts | 212° |
| 2026-05-09 09:09 | 49.95495 | 7.27006 | 1610 ft | 70 kts | 212° |
| 2026-05-09 09:10 | 49.94882 | 7.26401 | 1626 ft | 136 kts | 212° |
| 2026-05-09 09:10 | 49.93950 | 7.25482 | 1859 ft | 171 kts | 210° |
| 2026-05-09 09:10 | 49.92965 | 7.24468 | 2761 ft | 171 kts | 210° |
| 2026-05-09 09:10 | 49.91948 | 7.23414 | 3410 ft | 187 kts | 210° |
| 2026-05-09 09:11 | 49.90802 | 7.22243 | 3993 ft | 207 kts | 212° |
| 2026-05-09 09:11 | 49.89522 | 7.20960 | 4574 ft | 234 kts | 212° |
| 2026-05-09 09:11 | 49.88087 | 7.19532 | 5412 ft | 250 kts | 213° |
| 2026-05-09 09:11 | 49.86662 | 7.18085 | 6867 ft | 236 kts | 214° |
| 2026-05-09 09:12 | 49.85293 | 7.16730 | 8213 ft | 234 kts | 213° |
| 2026-05-09 09:12 | 49.83901 | 7.15365 | 9230 ft | 245 kts | 216° |
| 2026-05-09 09:12 | 49.82726 | 7.13374 | 10062 ft | 257 kts | 239° |
| 2026-05-09 09:12 | 49.82142 | 7.10739 | 11004 ft | 262 kts | 263° |
| 2026-05-09 09:13 | 49.82116 | 7.07921 | 11930 ft | 270 kts | 274° |
| 2026-05-09 09:13 | 49.82663 | 7.05110 | 12852 ft | 278 kts | 298° |
| 2026-05-09 09:13 | 49.83991 | 7.02947 | 13857 ft | 284 kts | 326° |
| 2026-05-09 09:13 | 49.85858 | 7.01933 | 14784 ft | 290 kts | 348° |
| 2026-05-09 09:14 | 49.87955 | 7.01767 | 15115 ft | 317 kts | 4° |
| 2026-05-09 09:14 | 49.90168 | 7.02639 | 15513 ft | 338 kts | 22° |
| 2026-05-09 09:14 | 49.92232 | 7.04516 | 16140 ft | 350 kts | 32° |
| 2026-05-09 09:14 | 49.94262 | 7.06695 | 16766 ft | 361 kts | 37° |
| 2026-05-09 09:15 | 49.96107 | 7.09412 | 17409 ft | 370 kts | 51° |
| 2026-05-09 09:15 | 49.97390 | 7.12864 | 18231 ft | 374 kts | 71° |
| 2026-05-09 09:15 | 49.98056 | 7.16787 | 19009 ft | 376 kts | 80° |
| 2026-05-09 09:15 | 49.98396 | 7.20839 | 19755 ft | 380 kts | 85° |
| 2026-05-09 09:16 | 49.98569 | 7.24963 | 20456 ft | 384 kts | 87° |
| 2026-05-09 09:16 | 49.98779 | 7.33354 | 21876 ft | 392 kts | 86° |
| 2026-05-09 09:16 | 49.98901 | 7.37596 | 22584 ft | 395 kts | 86° |
| 2026-05-09 09:17 | 49.99047 | 7.41874 | 23245 ft | 399 kts | 85° |
| 2026-05-09 09:17 | 49.99213 | 7.46198 | 23858 ft | 402 kts | 85° |
| 2026-05-09 09:17 | 49.99389 | 7.50510 | 24372 ft | 407 kts | 85° |
| 2026-05-09 09:17 | 49.99574 | 7.54934 | 24869 ft | 411 kts | 84° |
| 2026-05-09 09:18 | 49.99759 | 7.59385 | 25404 ft | 415 kts | 85° |
| 2026-05-09 09:18 | 49.99945 | 7.63885 | 25912 ft | 418 kts | 85° |
| 2026-05-09 09:18 | 50.00131 | 7.68414 | 26418 ft | 422 kts | 85° |
| 2026-05-09 09:18 | 50.00316 | 7.72991 | 26911 ft | 425 kts | 84° |
| 2026-05-09 09:19 | 50.00499 | 7.77600 | 27415 ft | 428 kts | 84° |
| 2026-05-09 09:19 | 50.00682 | 7.82230 | 27938 ft | 430 kts | 84° |
| 2026-05-09 09:19 | 50.00859 | 7.86824 | 28413 ft | 433 kts | 84° |
| 2026-05-09 09:19 | 50.01039 | 7.91527 | 28874 ft | 436 kts | 84° |
| 2026-05-09 09:20 | 50.01217 | 7.96255 | 29321 ft | 439 kts | 84° |
| 2026-05-09 09:20 | 50.01396 | 8.01012 | 29752 ft | 443 kts | 84° |
| 2026-05-09 09:20 | 50.01574 | 8.05797 | 30171 ft | 446 kts | 84° |
| 2026-05-09 09:20 | 50.01751 | 8.10613 | 30547 ft | 449 kts | 84° |
| 2026-05-09 09:21 | 50.01929 | 8.15506 | 30891 ft | 451 kts | 84° |
| 2026-05-09 09:21 | 50.02104 | 8.20393 | 31263 ft | 453 kts | 84° |
| 2026-05-09 09:21 | 50.02278 | 8.25311 | 31650 ft | 455 kts | 84° |
| 2026-05-09 09:21 | 50.02393 | 8.28573 | 31915 ft | 456 kts | 84° |
| 2026-05-09 09:22 | 50.02618 | 8.35112 | 32479 ft | 456 kts | 84° |
| 2026-05-09 09:22 | 50.02698 | 8.37446 | 32703 ft | 455 kts | 84° |
| 2026-05-09 09:22 | 50.02869 | 8.42493 | 33181 ft | 454 kts | 84° |
| 2026-05-09 09:22 | 50.02926 | 8.45763 | 33493 ft | 456 kts | 87° |
| 2026-05-09 09:23 | 50.02672 | 8.50678 | 33919 ft | 459 kts | 96° |
| 2026-05-09 09:23 | 50.01932 | 8.55520 | 34327 ft | 462 kts | 105° |
| 2026-05-09 09:23 | 50.00713 | 8.60161 | 34649 ft | 466 kts | 113° |
| 2026-05-09 09:23 | 49.99173 | 8.64603 | 34949 ft | 468 kts | 118° |
| 2026-05-09 09:24 | 49.98610 | 8.66061 | 35058 ft | 468 kts | 119° |
| 2026-05-09 09:24 | 49.98255 | 8.66954 | 35125 ft | 469 kts | 120° |
| 2026-05-09 09:24 | 49.97311 | 8.69263 | 35289 ft | 469 kts | 121° |
| 2026-05-09 09:24 | 49.95522 | 8.73506 | 35603 ft | 470 kts | 122° |
| 2026-05-09 09:25 | 49.93722 | 8.77736 | 35919 ft | 470 kts | 122° |
| 2026-05-09 09:25 | 49.92279 | 8.81153 | 36142 ft | 470 kts | 122° |
| 2026-05-09 09:25 | 49.90716 | 8.84894 | 36394 ft | 471 kts | 121° |
| 2026-05-09 09:25 | 49.88960 | 8.89140 | 36699 ft | 471 kts | 121° |
| 2026-05-09 09:26 | 49.87199 | 8.93428 | 36988 ft | 472 kts | 121° |
| 2026-05-09 09:26 | 49.85455 | 8.97691 | 37123 ft | 476 kts | 121° |
| 2026-05-09 09:26 | 49.81891 | 9.06398 | 37134 ft | 477 kts | 122° |
| 2026-05-09 09:27 | 49.78790 | 9.13946 | 37132 ft | 478 kts | 122° |
| 2026-05-09 09:27 | 49.75349 | 9.22287 | 37130 ft | 479 kts | 122° |
| 2026-05-09 09:28 | 49.71960 | 9.30473 | 37123 ft | 459 kts | 122° |
| 2026-05-09 09:28 | 49.70270 | 9.34546 | 37127 ft | 445 kts | 122° |
| 2026-05-09 09:28 | 49.68618 | 9.38520 | 37127 ft | 432 kts | 122° |
| 2026-05-09 09:29 | 49.67066 | 9.42248 | 37125 ft | 420 kts | 122° |
| 2026-05-09 09:29 | 49.65510 | 9.45982 | 37123 ft | 408 kts | 122° |
| 2026-05-09 09:29 | 49.64011 | 9.49574 | 37131 ft | 396 kts | 122° |
| 2026-05-09 09:29 | 49.62540 | 9.53094 | 37123 ft | 385 kts | 122° |
| 2026-05-09 09:30 | 49.61107 | 9.56520 | 37120 ft | 374 kts | 122° |
| 2026-05-09 09:30 | 49.59720 | 9.59832 | 37122 ft | 364 kts | 122° |
| 2026-05-09 09:30 | 49.56907 | 9.66537 | 37138 ft | 380 kts | 122° |
| 2026-05-09 09:31 | 49.53966 | 9.73531 | 37132 ft | 397 kts | 123° |
| 2026-05-09 09:32 | 49.48807 | 9.83944 | 37134 ft | 422 kts | 131° |
| 2026-05-09 09:32 | 49.44848 | 9.90865 | 37136 ft | 439 kts | 132° |
| 2026-05-09 09:33 | 49.40694 | 9.98013 | 37134 ft | 456 kts | 132° |
| 2026-05-09 09:33 | 49.36424 | 10.05368 | 37135 ft | 471 kts | 132° |
| 2026-05-09 09:34 | 49.31997 | 10.13001 | 37127 ft | 485 kts | 132° |
| 2026-05-09 09:34 | 49.27530 | 10.20692 | 37133 ft | 483 kts | 132° |
| 2026-05-09 09:36 | 49.09550 | 10.51399 | 37167 ft | 485 kts | 133° |
| 2026-05-09 09:37 | 49.05023 | 10.59072 | 37167 ft | 485 kts | 133° |
| 2026-05-09 09:37 | 49.00528 | 10.66669 | 37157 ft | 486 kts | 133° |
| 2026-05-09 09:38 | 48.95984 | 10.74327 | 37159 ft | 487 kts | 133° |
| 2026-05-09 09:38 | 48.91429 | 10.81981 | 37145 ft | 487 kts | 133° |
| 2026-05-09 09:39 | 48.86869 | 10.89621 | 37140 ft | 487 kts | 133° |
| 2026-05-09 09:39 | 48.82303 | 10.97247 | 37129 ft | 487 kts | 133° |
| 2026-05-09 09:40 | 48.78227 | 11.04037 | 37128 ft | 487 kts | 134° |
| 2026-05-09 09:40 | 48.73650 | 11.11643 | 37129 ft | 487 kts | 134° |
| 2026-05-09 09:41 | 48.69116 | 11.19152 | 37129 ft | 487 kts | 134° |
| 2026-05-09 09:41 | 48.64530 | 11.26726 | 37123 ft | 487 kts | 134° |
| 2026-05-09 09:42 | 48.59949 | 11.34270 | 37127 ft | 487 kts | 134° |
| 2026-05-09 09:42 | 48.55519 | 11.41545 | 37124 ft | 486 kts | 134° |
| 2026-05-09 09:43 | 48.50988 | 11.48965 | 37121 ft | 485 kts | 134° |
| 2026-05-09 09:43 | 48.46405 | 11.56449 | 37123 ft | 485 kts | 135° |
| 2026-05-09 09:44 | 48.41806 | 11.63937 | 37128 ft | 485 kts | 135° |
| 2026-05-09 09:44 | 48.37241 | 11.71349 | 37130 ft | 485 kts | 135° |
| 2026-05-09 09:45 | 48.32639 | 11.78800 | 37129 ft | 485 kts | 135° |
| 2026-05-09 09:45 | 48.28035 | 11.86232 | 37130 ft | 485 kts | 135° |
| 2026-05-09 09:46 | 48.23435 | 11.93638 | 37129 ft | 485 kts | 135° |
| 2026-05-09 09:46 | 48.18848 | 12.01001 | 37122 ft | 485 kts | 135° |
| 2026-05-09 09:47 | 48.14232 | 12.08391 | 37126 ft | 486 kts | 136° |
| 2026-05-09 09:47 | 48.09616 | 12.15759 | 37125 ft | 486 kts | 136° |
| 2026-05-09 09:48 | 48.05400 | 12.22470 | 37130 ft | 486 kts | 136° |
| 2026-05-09 09:48 | 48.00793 | 12.29784 | 37130 ft | 486 kts | 136° |
| 2026-05-09 09:49 | 47.96146 | 12.37142 | 37128 ft | 486 kts | 136° |
| 2026-05-09 09:49 | 47.91494 | 12.44487 | 37131 ft | 487 kts | 136° |
| 2026-05-09 09:50 | 47.86833 | 12.51824 | 37140 ft | 487 kts | 136° |
| 2026-05-09 09:50 | 47.82217 | 12.59072 | 37134 ft | 487 kts | 136° |
| 2026-05-09 09:51 | 47.77542 | 12.66389 | 37142 ft | 487 kts | 136° |
| 2026-05-09 09:51 | 47.72939 | 12.73576 | 37145 ft | 487 kts | 137° |
| 2026-05-09 09:52 | 47.68374 | 12.80999 | 37364 ft | 490 kts | 129° |
| 2026-05-09 09:52 | 47.66364 | 12.85054 | 37814 ft | 487 kts | 128° |
| 2026-05-09 09:52 | 47.64404 | 12.89150 | 38274 ft | 484 kts | 127° |
| 2026-05-09 09:52 | 47.62484 | 12.93239 | 38651 ft | 483 kts | 127° |
| 2026-05-09 09:53 | 47.60574 | 12.97338 | 39001 ft | 481 kts | 127° |
| 2026-05-09 09:53 | 47.58678 | 13.01410 | 39282 ft | 480 kts | 127° |
| 2026-05-09 09:53 | 47.56802 | 13.05433 | 39527 ft | 479 kts | 127° |
| 2026-05-09 09:53 | 47.54903 | 13.09490 | 39755 ft | 479 kts | 127° |
| 2026-05-09 09:54 | 47.53053 | 13.13428 | 39904 ft | 480 kts | 127° |
| 2026-05-09 09:54 | 47.51140 | 13.17492 | 40166 ft | 480 kts | 127° |
| 2026-05-09 09:54 | 47.49232 | 13.21533 | 40414 ft | 480 kts | 127° |
| 2026-05-09 09:54 | 47.47317 | 13.25585 | 40651 ft | 480 kts | 127° |
| 2026-05-09 09:55 | 47.45401 | 13.29633 | 40892 ft | 479 kts | 127° |
| 2026-05-09 09:55 | 47.43491 | 13.33662 | 41075 ft | 480 kts | 127° |
| 2026-05-09 09:55 | 47.41588 | 13.37670 | 41133 ft | 484 kts | 127° |
| 2026-05-09 09:56 | 47.37859 | 13.45502 | 41133 ft | 493 kts | 127° |
| 2026-05-09 09:56 | 47.33928 | 13.53742 | 41131 ft | 494 kts | 127° |
| 2026-05-09 09:57 | 47.29947 | 13.62069 | 41130 ft | 493 kts | 127° |
| 2026-05-09 09:57 | 47.26010 | 13.70265 | 41130 ft | 492 kts | 128° |
| 2026-05-09 09:58 | 47.21776 | 13.78200 | 41130 ft | 492 kts | 132° |
| 2026-05-09 09:58 | 47.17398 | 13.85952 | 41127 ft | 492 kts | 132° |
| 2026-05-09 09:59 | 47.13047 | 13.93729 | 41129 ft | 492 kts | 131° |
| 2026-05-09 09:59 | 47.08750 | 14.01495 | 41129 ft | 492 kts | 131° |
| 2026-05-09 10:00 | 47.04438 | 14.09304 | 41121 ft | 493 kts | 131° |
| 2026-05-09 10:00 | 47.00115 | 14.17109 | 41127 ft | 493 kts | 131° |
| 2026-05-09 10:01 | 46.95810 | 14.24857 | 41114 ft | 493 kts | 131° |
| 2026-05-09 10:01 | 46.91463 | 14.32656 | 41109 ft | 493 kts | 132° |
| 2026-05-09 10:02 | 46.87110 | 14.40442 | 41104 ft | 494 kts | 132° |
| 2026-05-09 10:02 | 46.82786 | 14.48155 | 41105 ft | 494 kts | 132° |
| 2026-05-09 10:03 | 46.78417 | 14.55925 | 41102 ft | 494 kts | 132° |
| 2026-05-09 10:03 | 46.74043 | 14.63684 | 41099 ft | 494 kts | 132° |
| 2026-05-09 10:04 | 46.69668 | 14.71423 | 41096 ft | 494 kts | 132° |
| 2026-05-09 10:04 | 46.65308 | 14.79112 | 41094 ft | 494 kts | 132° |
| 2026-05-09 10:05 | 46.60926 | 14.86819 | 41086 ft | 494 kts | 132° |
| 2026-05-09 10:05 | 46.56664 | 14.94294 | 41087 ft | 494 kts | 132° |
| 2026-05-09 10:06 | 46.52285 | 15.01954 | 41086 ft | 495 kts | 133° |
| 2026-05-09 10:06 | 46.47878 | 15.09643 | 41088 ft | 495 kts | 133° |
| 2026-05-09 10:07 | 46.43493 | 15.17274 | 41083 ft | 487 kts | 133° |
| 2026-05-09 10:07 | 46.39898 | 15.23515 | 41084 ft | 483 kts | 133° |
| 2026-05-09 10:08 | 46.35589 | 15.30970 | 41091 ft | 482 kts | 133° |
| 2026-05-09 10:08 | 46.31274 | 15.38414 | 41085 ft | 483 kts | 133° |
| 2026-05-09 10:09 | 46.26973 | 15.45817 | 41090 ft | 483 kts | 133° |
| 2026-05-09 10:09 | 46.22651 | 15.53238 | 41088 ft | 483 kts | 133° |
| 2026-05-09 10:10 | 46.18322 | 15.60652 | 41091 ft | 483 kts | 133° |
| 2026-05-09 10:10 | 46.13982 | 15.68057 | 41093 ft | 482 kts | 133° |
| 2026-05-09 10:11 | 46.09649 | 15.75375 | 41093 ft | 482 kts | 133° |
| 2026-05-09 10:11 | 46.05287 | 15.82719 | 41085 ft | 482 kts | 134° |
| 2026-05-09 10:12 | 46.00918 | 15.90065 | 41089 ft | 483 kts | 134° |
| 2026-05-09 10:12 | 45.96543 | 15.97407 | 41094 ft | 483 kts | 134° |
| 2026-05-09 10:13 | 45.92190 | 16.04694 | 41096 ft | 482 kts | 134° |
| 2026-05-09 10:13 | 45.87811 | 16.12003 | 41103 ft | 482 kts | 134° |
| 2026-05-09 10:14 | 45.83432 | 16.19293 | 41101 ft | 482 kts | 134° |
| 2026-05-09 10:14 | 45.79049 | 16.26572 | 41092 ft | 482 kts | 134° |
| 2026-05-09 10:15 | 45.74682 | 16.33805 | 41100 ft | 482 kts | 134° |
| 2026-05-09 10:15 | 45.70286 | 16.41066 | 41096 ft | 482 kts | 134° |
| 2026-05-09 10:16 | 45.65878 | 16.48329 | 41066 ft | 482 kts | 134° |
| 2026-05-09 10:16 | 45.61476 | 16.55563 | 41069 ft | 482 kts | 134° |
| 2026-05-09 10:17 | 45.57086 | 16.62757 | 41087 ft | 482 kts | 134° |
| 2026-05-09 10:17 | 45.52680 | 16.69961 | 41070 ft | 482 kts | 134° |
| 2026-05-09 10:18 | 45.48266 | 16.77157 | 41088 ft | 482 kts | 134° |
| 2026-05-09 10:18 | 45.43840 | 16.84356 | 41087 ft | 482 kts | 134° |
| 2026-05-09 10:19 | 45.39415 | 16.91534 | 41081 ft | 482 kts | 134° |
| 2026-05-09 10:19 | 45.34987 | 16.98698 | 41080 ft | 482 kts | 134° |
| 2026-05-09 10:20 | 45.30557 | 17.05847 | 41083 ft | 482 kts | 134° |
| 2026-05-09 10:20 | 45.26144 | 17.12949 | 41075 ft | 482 kts | 134° |
| 2026-05-09 10:21 | 45.21697 | 17.20088 | 41083 ft | 482 kts | 134° |
| 2026-05-09 10:21 | 45.17246 | 17.27217 | 41086 ft | 482 kts | 134° |
| 2026-05-09 10:22 | 45.12789 | 17.34336 | 41086 ft | 482 kts | 134° |
| 2026-05-09 10:22 | 45.08356 | 17.41398 | 41085 ft | 482 kts | 134° |
| 2026-05-09 10:23 | 45.03889 | 17.48498 | 41080 ft | 482 kts | 134° |
| 2026-05-09 10:23 | 44.99413 | 17.55592 | 41090 ft | 482 kts | 134° |
| 2026-05-09 10:24 | 44.94966 | 17.62624 | 41093 ft | 483 kts | 135° |
| 2026-05-09 10:24 | 44.90486 | 17.69690 | 41091 ft | 483 kts | 135° |
| 2026-05-09 10:25 | 44.85996 | 17.76753 | 41089 ft | 483 kts | 135° |
| 2026-05-09 10:25 | 44.81506 | 17.83800 | 41094 ft | 483 kts | 135° |
| 2026-05-09 10:26 | 44.77107 | 17.90900 | 41094 ft | 484 kts | 130° |
| 2026-05-09 10:26 | 44.73001 | 17.98419 | 41083 ft | 485 kts | 129° |
| 2026-05-09 10:27 | 44.68945 | 18.06004 | 41098 ft | 485 kts | 129° |
| 2026-05-09 10:27 | 44.64888 | 18.13595 | 41097 ft | 485 kts | 129° |
| 2026-05-09 10:28 | 44.60822 | 18.21167 | 41100 ft | 485 kts | 129° |
| 2026-05-09 10:28 | 44.56770 | 18.28681 | 41099 ft | 485 kts | 129° |
| 2026-05-09 10:29 | 44.52686 | 18.36232 | 41097 ft | 485 kts | 129° |
| 2026-05-09 10:29 | 44.48595 | 18.43777 | 41103 ft | 485 kts | 129° |
| 2026-05-09 10:30 | 44.44527 | 18.51260 | 41091 ft | 485 kts | 129° |
| 2026-05-09 10:30 | 44.40428 | 18.58781 | 41102 ft | 486 kts | 129° |
| 2026-05-09 10:31 | 44.36319 | 18.66300 | 41101 ft | 486 kts | 129° |
| 2026-05-09 10:31 | 44.32208 | 18.73805 | 41101 ft | 486 kts | 130° |
| 2026-05-09 10:32 | 44.28091 | 18.81301 | 41111 ft | 486 kts | 130° |
| 2026-05-09 10:32 | 44.23994 | 18.88739 | 41113 ft | 486 kts | 130° |
| 2026-05-09 10:33 | 44.19867 | 18.96213 | 41110 ft | 485 kts | 130° |
| 2026-05-09 10:33 | 44.15744 | 19.03663 | 41104 ft | 485 kts | 130° |
| 2026-05-09 10:34 | 44.11616 | 19.11098 | 41109 ft | 486 kts | 130° |
| 2026-05-09 10:34 | 44.05404 | 19.22256 | 41105 ft | 486 kts | 130° |
| 2026-05-09 10:35 | 44.01287 | 19.29628 | 41108 ft | 485 kts | 130° |
| 2026-05-09 10:35 | 43.97131 | 19.37027 | 41109 ft | 485 kts | 131° |
| 2026-05-09 10:36 | 43.92455 | 19.43730 | 41127 ft | 482 kts | 138° |
| 2026-05-09 10:36 | 43.87588 | 19.50157 | 41114 ft | 482 kts | 139° |
| 2026-05-09 10:37 | 43.82723 | 19.56481 | 41119 ft | 482 kts | 139° |
| 2026-05-09 10:37 | 43.77836 | 19.62836 | 41118 ft | 482 kts | 139° |
| 2026-05-09 10:38 | 43.72942 | 19.69205 | 41118 ft | 482 kts | 139° |
| 2026-05-09 10:38 | 43.68052 | 19.75561 | 41117 ft | 482 kts | 139° |
| 2026-05-09 10:39 | 43.63214 | 19.81836 | 41107 ft | 482 kts | 139° |
| 2026-05-09 10:39 | 43.58333 | 19.88150 | 41117 ft | 482 kts | 139° |
| 2026-05-09 10:40 | 43.53436 | 19.94469 | 41113 ft | 483 kts | 139° |
| 2026-05-09 10:40 | 43.48514 | 20.00806 | 41114 ft | 483 kts | 139° |
| 2026-05-09 10:41 | 43.43627 | 20.07085 | 41111 ft | 483 kts | 139° |
| 2026-05-09 10:41 | 43.38703 | 20.13395 | 41108 ft | 483 kts | 139° |
| 2026-05-09 10:42 | 43.33779 | 20.19690 | 41108 ft | 483 kts | 139° |
| 2026-05-09 10:42 | 43.28879 | 20.25940 | 41104 ft | 484 kts | 139° |
| 2026-05-09 10:43 | 43.23949 | 20.32215 | 41106 ft | 483 kts | 139° |
| 2026-05-09 10:43 | 43.19017 | 20.38476 | 41099 ft | 483 kts | 139° |
| 2026-05-09 10:44 | 43.14083 | 20.44728 | 41103 ft | 483 kts | 139° |
| 2026-05-09 10:44 | 43.09148 | 20.50965 | 41097 ft | 483 kts | 139° |